createdAt,value
2022-11-01T00:00:01.140Z,13
2022-11-01T00:01:01.280Z,13
2022-11-01T00:02:01.152Z,13
2022-11-01T00:03:01.059Z,13
2022-11-01T00:04:01.069Z,13
2022-11-01T00:05:01.075Z,13
2022-11-01T00:06:01.777Z,13
2022-11-01T00:07:01.812Z,12.9
2022-11-01T00:08:02.044Z,12.9
2022-11-01T00:09:01.778Z,12.9
2022-11-01T00:10:02.785Z,12.9
2022-11-01T00:11:01.782Z,12.9
2022-11-01T00:12:01.129Z,12.8
2022-11-01T00:13:02.056Z,12.9
2022-11-01T00:14:01.429Z,12.9
2022-11-01T00:15:01.137Z,12.8
2022-11-01T00:16:01.149Z,12.8
2022-11-01T00:17:01.541Z,12.8
2022-11-01T00:18:01.252Z,12.8
2022-11-01T00:19:02.776Z,12.8
2022-11-01T00:20:01.084Z,12.8
2022-11-01T00:21:01.080Z,12.8
2022-11-01T00:22:01.183Z,12.8
2022-11-01T00:23:01.930Z,12.8
2022-11-01T00:24:01.099Z,12.8
2022-11-01T00:25:01.105Z,12.8
2022-11-01T00:26:01.108Z,12.8
2022-11-01T00:27:01.181Z,12.8
2022-11-01T00:28:01.782Z,12.8
2022-11-01T00:29:01.040Z,12.8
2022-11-01T00:30:01.247Z,12.8
2022-11-01T00:31:01.325Z,12.8
2022-11-01T00:32:01.174Z,12.8
2022-11-01T00:33:01.150Z,12.8
2022-11-01T00:34:03.906Z,12.8
2022-11-01T00:35:01.067Z,12.8
2022-11-01T00:36:01.076Z,12.8
2022-11-01T00:37:00.761Z,12.8
2022-11-01T00:38:00.841Z,12.8
2022-11-01T00:39:01.383Z,12.8
2022-11-01T00:40:01.044Z,12.8
2022-11-01T00:41:01.442Z,12.8
2022-11-01T00:42:01.097Z,12.8
2022-11-01T00:43:01.115Z,12.8
2022-11-01T00:44:01.133Z,12.8
2022-11-01T00:45:01.119Z,12.8
2022-11-01T00:46:01.140Z,12.8
2022-11-01T00:47:01.927Z,12.8
2022-11-01T00:48:01.413Z,12.8
2022-11-01T00:49:01.040Z,12.8
2022-11-01T00:50:01.777Z,12.8
2022-11-01T00:51:01.082Z,12.8
2022-11-01T00:52:01.074Z,12.8
2022-11-01T00:53:00.788Z,12.8
2022-11-01T00:54:00.463Z,12.8
2022-11-01T00:55:00.061Z,12.8
2022-11-01T00:56:00.740Z,12.8
2022-11-01T00:57:00.741Z,12.8
2022-11-01T00:58:01.110Z,12.8
2022-11-01T00:59:01.410Z,12.8
2022-11-01T01:00:01.514Z,12.8
2022-11-01T01:01:02.739Z,12.8
2022-11-01T01:02:01.291Z,12.8
2022-11-01T01:03:01.426Z,12.8
2022-11-01T01:04:04.022Z,12.8
2022-11-01T01:05:01.344Z,12.8
2022-11-01T01:06:04.876Z,12.8
2022-11-01T01:07:01.064Z,12.8
2022-11-01T01:08:01.100Z,12.8
2022-11-01T01:09:01.453Z,12.8
2022-11-01T01:10:01.080Z,12.8
2022-11-01T01:11:08.418Z,12.8
2022-11-01T01:12:01.090Z,12.8
2022-11-01T01:13:01.586Z,12.8
2022-11-01T01:14:02.792Z,12.8
2022-11-01T01:15:01.790Z,12.8
2022-11-01T01:16:10.563Z,12.8
2022-11-01T01:17:01.181Z,12.8
2022-11-01T01:18:01.945Z,12.8
2022-11-01T01:19:01.170Z,12.8
2022-11-01T01:20:01.090Z,12.8
2022-11-01T01:21:13.534Z,12.8
2022-11-01T01:22:01.099Z,12.8
2022-11-01T01:23:01.795Z,12.8
2022-11-01T01:24:01.100Z,12.8
2022-11-01T01:25:01.093Z,12.8
2022-11-01T01:26:15.894Z,12.8
2022-11-01T01:27:02.047Z,12.8
2022-11-01T01:28:01.484Z,12.8
2022-11-01T01:29:01.117Z,12.8
2022-11-01T01:30:01.107Z,12.8
2022-11-01T01:31:01.137Z,12.8
2022-11-01T01:32:01.126Z,12.8
2022-11-01T01:33:01.194Z,12.8
2022-11-01T01:34:01.056Z,12.8
2022-11-01T01:35:01.142Z,12.9
2022-11-01T01:36:01.166Z,12.9
2022-11-01T01:37:04.229Z,12.9
2022-11-01T01:38:01.361Z,12.9
2022-11-01T01:39:01.087Z,12.9
2022-11-01T01:40:01.086Z,12.9
2022-11-01T01:41:01.071Z,13
2022-11-01T01:42:01.080Z,13
2022-11-01T01:43:01.086Z,13
2022-11-01T01:44:01.229Z,13
2022-11-01T01:45:01.249Z,13
2022-11-01T01:46:01.263Z,13
2022-11-01T01:47:01.118Z,13
2022-11-01T01:48:01.549Z,13
2022-11-01T01:49:01.047Z,13
2022-11-01T01:50:01.143Z,13
2022-11-01T01:51:01.164Z,13
2022-11-01T01:52:01.166Z,13
2022-11-01T01:53:02.223Z,13
2022-11-01T01:54:02.335Z,13
2022-11-01T01:55:01.081Z,13
2022-11-01T01:56:01.093Z,13
2022-11-01T01:57:01.466Z,12.9
2022-11-01T01:58:01.475Z,13
2022-11-01T01:59:01.135Z,12.9
2022-11-01T02:00:01.844Z,12.9
2022-11-01T02:01:01.172Z,12.9
2022-11-01T02:02:02.187Z,12.9
2022-11-01T02:03:01.595Z,12.9
2022-11-01T02:04:01.322Z,12.9
2022-11-01T02:05:01.448Z,12.9
2022-11-01T02:06:01.499Z,12.9
2022-11-01T02:07:01.141Z,12.8
2022-11-01T02:08:01.596Z,12.9
2022-11-01T02:09:01.167Z,12.9
2022-11-01T02:10:01.068Z,12.9
2022-11-01T02:11:01.055Z,12.9
2022-11-01T02:12:01.434Z,12.8
2022-11-01T02:13:01.437Z,12.8
2022-11-01T02:14:00.650Z,12.8
2022-11-01T02:15:00.450Z,12.8
2022-11-01T02:16:00.189Z,12.8
2022-11-01T02:16:59.867Z,12.8
2022-11-01T02:18:02.143Z,12.8
2022-11-01T02:19:01.120Z,12.8
2022-11-01T02:20:01.135Z,12.8
2022-11-01T02:21:01.143Z,12.7
2022-11-01T02:22:01.335Z,12.7
2022-11-01T02:23:02.637Z,12.8
2022-11-01T02:24:01.053Z,12.8
2022-11-01T02:25:01.055Z,12.7
2022-11-01T02:26:01.058Z,12.7
2022-11-01T02:26:59.741Z,12.7
2022-11-01T02:28:01.454Z,12.7
2022-11-01T02:29:04.791Z,12.7
2022-11-01T02:30:02.122Z,12.7
2022-11-01T02:31:01.198Z,12.6
2022-11-01T02:32:01.104Z,12.6
2022-11-01T02:33:01.623Z,12.6
2022-11-01T02:34:01.144Z,12.6
2022-11-01T02:35:01.929Z,12.7
2022-11-01T02:36:01.466Z,12.7
2022-11-01T02:37:02.167Z,12.7
2022-11-01T02:38:02.159Z,12.6
2022-11-01T02:39:01.191Z,12.7
2022-11-01T02:40:01.157Z,12.6
2022-11-01T02:41:01.787Z,12.6
2022-11-01T02:42:01.367Z,12.6
2022-11-01T02:43:01.572Z,12.6
2022-11-01T02:44:01.938Z,12.6
2022-11-01T02:45:01.074Z,12.6
2022-11-01T02:46:01.078Z,12.6
2022-11-01T02:47:00.989Z,12.6
2022-11-01T02:48:01.127Z,12.6
2022-11-01T02:49:01.118Z,12.6
2022-11-01T02:50:01.341Z,12.6
2022-11-01T02:51:01.078Z,12.6
2022-11-01T02:52:03.412Z,12.6
2022-11-01T02:53:01.124Z,12.6
2022-11-01T02:54:01.392Z,12.6
2022-11-01T02:55:02.056Z,12.6
2022-11-01T02:56:02.063Z,12.6
2022-11-01T02:57:05.534Z,12.6
2022-11-01T02:58:01.639Z,12.6
2022-11-01T02:59:01.117Z,12.6
2022-11-01T03:00:01.082Z,12.6
2022-11-01T03:01:01.130Z,12.6
2022-11-01T03:02:09.331Z,12.6
2022-11-01T03:03:01.097Z,12.6
2022-11-01T03:04:01.100Z,12.6
2022-11-01T03:05:01.254Z,12.6
2022-11-01T03:06:01.115Z,12.6
2022-11-01T03:07:11.293Z,12.6
2022-11-01T03:08:01.599Z,12.5
2022-11-01T03:09:01.131Z,12.5
2022-11-01T03:10:01.144Z,12.5
2022-11-01T03:11:01.138Z,12.5
2022-11-01T03:12:13.988Z,12.5
2022-11-01T03:13:01.468Z,12.5
2022-11-01T03:14:01.086Z,12.5
2022-11-01T03:15:01.156Z,12.5
2022-11-01T03:16:01.193Z,12.5
2022-11-01T03:17:17.230Z,12.5
2022-11-01T03:18:03.113Z,12.5
2022-11-01T03:19:01.227Z,12.5
2022-11-01T03:20:01.131Z,12.5
2022-11-01T03:21:01.128Z,12.5
2022-11-01T03:22:01.221Z,12.5
2022-11-01T03:23:01.628Z,12.4
2022-11-01T03:24:01.044Z,12.4
2022-11-01T03:25:01.534Z,12.3
2022-11-01T03:26:01.538Z,12.3
2022-11-01T03:27:01.268Z,12.3
2022-11-01T03:28:01.230Z,12.3
2022-11-01T03:29:01.894Z,12.3
2022-11-01T03:30:01.106Z,12.3
2022-11-01T03:31:01.089Z,12.3
2022-11-01T03:32:01.227Z,12.3
2022-11-01T03:33:01.539Z,12.2
2022-11-01T03:34:02.847Z,12.3
2022-11-01T03:35:01.919Z,12.3
2022-11-01T03:36:01.774Z,12.3
2022-11-01T03:37:01.105Z,12.3
2022-11-01T03:38:01.154Z,12.3
2022-11-01T03:39:01.147Z,12.3
2022-11-01T03:40:01.494Z,12.3
2022-11-01T03:41:01.489Z,12.3
2022-11-01T03:42:02.152Z,12.3
2022-11-01T03:43:01.347Z,12.3
2022-11-01T03:44:00.852Z,12.3
2022-11-01T03:45:00.454Z,12.3
2022-11-01T03:46:00.033Z,12.3
2022-11-01T03:46:59.593Z,12.3
2022-11-01T03:48:02.027Z,12.3
2022-11-01T03:49:01.458Z,12.3
2022-11-01T03:50:02.263Z,12.3
2022-11-01T03:51:01.067Z,12.3
2022-11-01T03:52:01.062Z,12.3
2022-11-01T03:53:01.447Z,12.3
2022-11-01T03:54:02.348Z,12.3
2022-11-01T03:55:01.054Z,12.3
2022-11-01T03:56:01.145Z,12.3
2022-11-01T03:57:02.456Z,12.3
2022-11-01T03:58:01.564Z,12.3
2022-11-01T03:59:01.265Z,12.3
2022-11-01T04:00:01.561Z,12.3
2022-11-01T04:01:02.141Z,12.3
2022-11-01T04:02:02.834Z,12.3
2022-11-01T04:03:01.624Z,12.3
2022-11-01T04:04:01.081Z,12.3
2022-11-01T04:05:01.081Z,12.3
2022-11-01T04:06:01.094Z,12.3
2022-11-01T04:07:01.092Z,12.3
2022-11-01T04:08:02.122Z,12.3
2022-11-01T04:09:02.118Z,12.4
2022-11-01T04:10:02.138Z,12.4
2022-11-01T04:11:01.143Z,12.4
2022-11-01T04:12:01.126Z,12.4
2022-11-01T04:13:01.570Z,12.4
2022-11-01T04:14:01.331Z,12.4
2022-11-01T04:15:01.540Z,12.4
2022-11-01T04:16:01.165Z,12.3
2022-11-01T04:17:01.093Z,12.3
2022-11-01T04:18:01.506Z,12.3
2022-11-01T04:19:01.065Z,12.3
2022-11-01T04:20:01.088Z,12.3
2022-11-01T04:21:01.095Z,12.2
2022-11-01T04:22:01.092Z,12.2
2022-11-01T04:23:01.585Z,12.2
2022-11-01T04:24:01.116Z,12.2
2022-11-01T04:25:00.710Z,12.1
2022-11-01T04:26:00.271Z,12.2
2022-11-01T04:27:00.387Z,12.1
2022-11-01T04:28:00.102Z,12.1
2022-11-01T04:28:59.716Z,12.2
2022-11-01T04:30:01.728Z,12.2
2022-11-01T04:31:01.715Z,12.2
2022-11-01T04:32:01.062Z,12.3
2022-11-01T04:33:01.437Z,12.3
2022-11-01T04:34:01.380Z,12.3
2022-11-01T04:35:01.204Z,12.3
2022-11-01T04:36:01.177Z,12.2
2022-11-01T04:37:01.448Z,12.1
2022-11-01T04:38:02.215Z,12.1
2022-11-01T04:39:01.127Z,12.1
2022-11-01T04:40:02.835Z,12.1
2022-11-01T04:41:01.518Z,12.1
2022-11-01T04:42:01.154Z,12
2022-11-01T04:43:04.966Z,12.1
2022-11-01T04:44:01.876Z,12.1
2022-11-01T04:45:01.946Z,12.1
2022-11-01T04:46:01.267Z,12.1
2022-11-01T04:47:01.159Z,12.1
2022-11-01T04:48:09.142Z,12.1
2022-11-01T04:49:01.053Z,12.1
2022-11-01T04:50:01.790Z,12.1
2022-11-01T04:51:01.423Z,12.1
2022-11-01T04:52:01.429Z,12.1
2022-11-01T04:53:12.656Z,12.1
2022-11-01T04:54:01.074Z,12.1
2022-11-01T04:55:01.073Z,12.1
2022-11-01T04:56:01.120Z,12.1
2022-11-01T04:57:01.135Z,12.1
2022-11-01T04:58:14.841Z,12.2
2022-11-01T04:59:01.116Z,12.1
2022-11-01T05:00:01.147Z,12.1
2022-11-01T05:01:02.126Z,12.1
2022-11-01T05:02:01.309Z,12.1
2022-11-01T05:03:16.764Z,12
2022-11-01T05:04:01.951Z,12
2022-11-01T05:05:01.485Z,11.9
2022-11-01T05:06:01.074Z,11.9
2022-11-01T05:07:00.758Z,11.9
2022-11-01T05:09:00.062Z,11.9
2022-11-01T05:09:59.779Z,11.9
2022-11-01T05:11:01.485Z,11.8
2022-11-01T05:12:01.182Z,11.8
2022-11-01T05:13:02.214Z,11.8
2022-11-01T05:14:00.421Z,11.8
2022-11-01T05:14:59.991Z,11.9
2022-11-01T05:16:18.285Z,11.9
2022-11-01T05:17:01.136Z,11.9
2022-11-01T05:18:01.151Z,11.9
2022-11-01T05:19:01.256Z,11.9
2022-11-01T05:20:01.393Z,11.9
2022-11-01T05:21:01.409Z,11.8
2022-11-01T05:22:01.455Z,11.8
2022-11-01T05:23:02.056Z,11.8
2022-11-01T05:24:01.071Z,11.8
2022-11-01T05:25:01.110Z,11.7
2022-11-01T05:26:01.103Z,11.7
2022-11-01T05:27:01.099Z,11.7
2022-11-01T05:28:01.709Z,11.7
2022-11-01T05:29:08.866Z,11.7
2022-11-01T05:30:01.393Z,11.7
2022-11-01T05:31:01.520Z,11.7
2022-11-01T05:32:02.223Z,11.7
2022-11-01T05:33:04.689Z,11.7
2022-11-01T05:34:01.065Z,11.6
2022-11-01T05:35:01.097Z,11.7
2022-11-01T05:36:01.063Z,11.6
2022-11-01T05:37:01.086Z,11.6
2022-11-01T05:38:02.103Z,11.6
2022-11-01T05:39:01.136Z,11.6
2022-11-01T05:40:01.661Z,11.6
2022-11-01T05:41:01.169Z,11.6
2022-11-01T05:42:02.951Z,11.6
2022-11-01T05:43:01.486Z,11.6
2022-11-01T05:44:01.913Z,11.6
2022-11-01T05:45:01.426Z,11.6
2022-11-01T05:46:01.414Z,11.6
2022-11-01T05:47:01.192Z,11.6
2022-11-01T05:48:01.144Z,11.6
2022-11-01T05:49:01.776Z,11.6
2022-11-01T05:50:02.223Z,11.6
2022-11-01T05:51:01.458Z,11.6
2022-11-01T05:52:01.077Z,11.6
2022-11-01T05:53:01.415Z,11.6
2022-11-01T05:54:01.733Z,11.6
2022-11-01T05:55:01.807Z,11.6
2022-11-01T05:56:01.433Z,11.5
2022-11-01T05:57:02.110Z,11.5
2022-11-01T05:58:01.198Z,11.5
2022-11-01T05:59:00.700Z,11.5
2022-11-01T06:00:00.308Z,11.5
2022-11-01T06:01:00.119Z,11.5
2022-11-01T06:01:59.903Z,11.5
2022-11-01T06:03:00.016Z,11.5
2022-11-01T06:03:59.882Z,11.5
2022-11-01T06:05:02.807Z,11.5
2022-11-01T06:06:01.300Z,11.6
2022-11-01T06:07:01.532Z,11.5
2022-11-01T06:08:01.054Z,11.5
2022-11-01T06:09:01.062Z,11.6
2022-11-01T06:10:01.084Z,11.6
2022-11-01T06:11:01.055Z,11.6
2022-11-01T06:12:00.779Z,11.6
2022-11-01T06:13:00.859Z,11.6
2022-11-01T06:14:01.085Z,11.6
2022-11-01T06:15:01.128Z,11.6
2022-11-01T06:16:01.076Z,11.6
2022-11-01T06:17:01.354Z,11.6
2022-11-01T06:18:01.997Z,11.6
2022-11-01T06:19:02.311Z,11.6
2022-11-01T06:20:01.143Z,11.6
2022-11-01T06:21:01.143Z,11.6
2022-11-01T06:22:00.638Z,11.6
2022-11-01T06:23:00.229Z,11.6
2022-11-01T06:24:05.683Z,11.6
2022-11-01T06:25:01.943Z,11.6
2022-11-01T06:26:01.995Z,11.6
2022-11-01T06:27:01.200Z,11.6
2022-11-01T06:28:01.462Z,11.6
2022-11-01T06:29:08.109Z,11.7
2022-11-01T06:30:01.805Z,11.6
2022-11-01T06:31:01.535Z,11.7
2022-11-01T06:32:00.989Z,11.7
2022-11-01T06:33:01.882Z,11.8
2022-11-01T06:34:08.125Z,11.8
2022-11-01T06:35:01.938Z,11.8
2022-11-01T06:36:01.132Z,11.8
2022-11-01T06:37:01.139Z,11.8
2022-11-01T06:38:01.165Z,11.8
2022-11-01T06:39:11.663Z,11.8
2022-11-01T06:40:03.863Z,11.8
2022-11-01T06:41:01.279Z,11.8
2022-11-01T06:42:01.099Z,11.8
2022-11-01T06:43:01.672Z,11.9
2022-11-01T06:44:15.186Z,11.9
2022-11-01T06:45:00.997Z,11.9
2022-11-01T06:46:01.472Z,11.9
2022-11-01T06:47:01.099Z,11.9
2022-11-01T06:48:01.350Z,11.9
2022-11-01T06:49:00.836Z,11.8
2022-11-01T06:50:00.625Z,11.9
2022-11-01T06:51:00.355Z,11.9
2022-11-01T06:52:02.267Z,11.9
2022-11-01T06:53:02.019Z,11.9
2022-11-01T06:54:01.270Z,11.9
2022-11-01T06:55:05.297Z,11.9
2022-11-01T06:56:01.758Z,11.9
2022-11-01T06:57:01.182Z,11.9
2022-11-01T06:58:01.642Z,11.9
2022-11-01T06:59:02.312Z,11.9
2022-11-01T07:00:01.037Z,11.9
2022-11-01T07:01:01.184Z,11.9
2022-11-01T07:02:02.234Z,11.9
2022-11-01T07:03:01.304Z,11.9
2022-11-01T07:04:01.821Z,12
2022-11-01T07:05:02.342Z,11.9
2022-11-01T07:06:00.607Z,12
2022-11-01T07:07:00.192Z,11.9
2022-11-01T07:08:00.049Z,12
2022-11-01T07:08:59.912Z,12
2022-11-01T07:09:59.499Z,12
2022-11-01T07:11:02.299Z,11.9
2022-11-01T07:12:00.965Z,11.9
2022-11-01T07:13:01.086Z,12
2022-11-01T07:14:01.074Z,12
2022-11-01T07:15:01.073Z,12
2022-11-01T07:16:01.312Z,12.1
2022-11-01T07:17:01.308Z,12.1
2022-11-01T07:18:01.454Z,12.1
2022-11-01T07:19:01.264Z,12.2
2022-11-01T07:20:02.168Z,12.2
2022-11-01T07:21:04.015Z,12.3
2022-11-01T07:22:01.046Z,12.3
2022-11-01T07:23:01.378Z,12.3
2022-11-01T07:24:01.252Z,12.4
2022-11-01T07:25:01.459Z,12.4
2022-11-01T07:26:01.167Z,12.4
2022-11-01T07:27:01.160Z,12.5
2022-11-01T07:28:01.043Z,12.4
2022-11-01T07:29:01.244Z,12.5
2022-11-01T07:30:01.384Z,12.5
2022-11-01T07:31:01.224Z,12.5
2022-11-01T07:32:00.981Z,12.5
2022-11-01T07:33:01.683Z,12.5
2022-11-01T07:34:02.224Z,12.5
2022-11-01T07:35:01.140Z,12.5
2022-11-01T07:36:01.149Z,12.6
2022-11-01T07:37:00.645Z,12.6
2022-11-01T07:38:01.258Z,12.6
2022-11-01T07:39:01.339Z,12.6
2022-11-01T07:40:01.203Z,12.6
2022-11-01T07:41:01.942Z,12.6
2022-11-01T07:42:01.719Z,12.6
2022-11-01T07:43:01.164Z,12.6
2022-11-01T07:44:01.972Z,12.7
2022-11-01T07:45:01.871Z,12.7
2022-11-01T07:46:01.479Z,12.7
2022-11-01T07:47:01.877Z,12.8
2022-11-01T07:48:01.625Z,12.8
2022-11-01T07:49:00.468Z,12.8
2022-11-01T07:50:00.059Z,12.8
2022-11-01T07:51:00.260Z,12.8
2022-11-01T07:52:02.832Z,12.8
2022-11-01T07:53:01.172Z,12.8
2022-11-01T07:55:00.910Z,12.8
2022-11-01T07:56:01.528Z,12.8
2022-11-01T07:57:01.145Z,12.8
2022-11-01T07:58:01.480Z,12.8
2022-11-01T07:59:01.466Z,12.8
2022-11-01T08:00:04.575Z,12.8
2022-11-01T08:01:01.148Z,12.8
2022-11-01T08:02:05.332Z,12.8
2022-11-01T08:03:02.232Z,12.8
2022-11-01T08:04:01.098Z,12.9
2022-11-01T08:05:06.609Z,12.9
2022-11-01T08:06:02.222Z,12.9
2022-11-01T08:07:01.207Z,12.9
2022-11-01T08:08:01.967Z,13
2022-11-01T08:09:04.318Z,13
2022-11-01T08:10:09.731Z,13
2022-11-01T08:11:02.559Z,13
2022-11-01T08:12:00.825Z,13
2022-11-01T08:13:01.310Z,13
2022-11-01T08:14:04.349Z,13
2022-11-01T08:15:13.362Z,13.1
2022-11-01T08:16:01.122Z,13.1
2022-11-01T08:17:01.061Z,13.1
2022-11-01T08:18:01.498Z,13.1
2022-11-01T08:19:01.088Z,13.1
2022-11-01T08:20:15.639Z,13.1
2022-11-01T08:21:01.463Z,13.1
2022-11-01T08:22:01.488Z,13.1
2022-11-01T08:23:01.529Z,13.1
2022-11-01T08:24:01.167Z,13.1
2022-11-01T08:25:01.261Z,13.2
2022-11-01T08:26:01.941Z,13.2
2022-11-01T08:27:01.123Z,13.2
2022-11-01T08:28:01.145Z,13.2
2022-11-01T08:29:01.143Z,13.3
2022-11-01T08:30:01.155Z,13.3
2022-11-01T08:31:01.197Z,13.3
2022-11-01T08:32:01.067Z,13.3
2022-11-01T08:33:01.588Z,13.3
2022-11-01T08:34:02.700Z,13.3
2022-11-01T08:35:01.270Z,13.4
2022-11-01T08:36:01.411Z,13.4
2022-11-01T08:37:01.073Z,13.4
2022-11-01T08:38:00.818Z,13.4
2022-11-01T08:39:01.192Z,13.5
2022-11-01T08:40:02.048Z,13.5
2022-11-01T08:41:03.237Z,13.5
2022-11-01T08:42:01.125Z,13.5
2022-11-01T08:43:01.607Z,13.5
2022-11-01T08:44:01.163Z,13.6
2022-11-01T08:45:01.865Z,13.6
2022-11-01T08:46:02.081Z,13.6
2022-11-01T08:47:01.151Z,13.6
2022-11-01T08:48:01.166Z,13.6
2022-11-01T08:49:01.203Z,13.7
2022-11-01T08:50:01.080Z,13.7
2022-11-01T08:51:01.886Z,13.7
2022-11-01T08:52:04.661Z,13.8
2022-11-01T08:53:01.506Z,13.8
2022-11-01T08:54:01.107Z,13.8
2022-11-01T08:55:01.098Z,13.8
2022-11-01T08:56:01.058Z,13.9
2022-11-01T08:57:01.038Z,13.9
2022-11-01T08:58:01.196Z,14
2022-11-01T08:59:01.074Z,14
2022-11-01T09:00:01.137Z,14
2022-11-01T09:01:01.325Z,14
2022-11-01T09:02:01.364Z,14.1
2022-11-01T09:03:01.935Z,14.1
2022-11-01T09:04:01.099Z,14.1
2022-11-01T09:05:01.069Z,14.1
2022-11-01T09:06:01.328Z,14.1
2022-11-01T09:07:01.895Z,14.1
2022-11-01T09:08:01.775Z,14.2
2022-11-01T09:09:01.092Z,14.2
2022-11-01T09:10:01.107Z,14.2
2022-11-01T09:11:01.482Z,14.3
2022-11-01T09:12:12.352Z,14.3
2022-11-01T09:13:02.208Z,14.4
2022-11-01T09:14:01.369Z,14.4
2022-11-01T09:15:02.594Z,14.5
2022-11-01T09:16:02.324Z,14.5
2022-11-01T09:17:01.147Z,14.5
2022-11-01T09:18:01.168Z,14.5
2022-11-01T09:19:01.109Z,14.6
2022-11-01T09:20:01.139Z,14.6
2022-11-01T09:21:01.072Z,14.6
2022-11-01T09:22:01.079Z,14.6
2022-11-01T09:23:01.491Z,14.6
2022-11-01T09:24:01.399Z,14.6
2022-11-01T09:25:01.098Z,14.6
2022-11-01T09:26:01.322Z,14.6
2022-11-01T09:27:01.389Z,14.7
2022-11-01T09:28:01.418Z,14.7
2022-11-01T09:29:02.281Z,14.7
2022-11-01T09:30:01.841Z,14.8
2022-11-01T09:31:15.471Z,14.8
2022-11-01T09:32:01.152Z,14.8
2022-11-01T09:33:01.323Z,14.8
2022-11-01T09:34:01.064Z,14.8
2022-11-01T09:35:01.049Z,14.9
2022-11-01T09:36:01.204Z,14.9
2022-11-01T09:37:01.064Z,14.9
2022-11-01T09:38:01.253Z,14.9
2022-11-01T09:39:01.095Z,15
2022-11-01T09:40:01.094Z,15
2022-11-01T09:41:01.790Z,15
2022-11-01T09:42:04.126Z,15
2022-11-01T09:43:02.107Z,15
2022-11-01T09:44:01.106Z,15
2022-11-01T09:45:01.040Z,15
2022-11-01T09:46:01.137Z,15
2022-11-01T09:47:02.741Z,15
2022-11-01T09:48:01.620Z,15
2022-11-01T09:49:01.161Z,15.1
2022-11-01T09:50:01.161Z,15.1
2022-11-01T09:51:03.358Z,15.1
2022-11-01T09:52:03.458Z,15.1
2022-11-01T09:53:01.072Z,15.1
2022-11-01T09:54:01.073Z,15.2
2022-11-01T09:55:01.393Z,15.3
2022-11-01T09:56:04.808Z,15.3
2022-11-01T09:57:01.465Z,15.3
2022-11-01T09:58:02.569Z,15.4
2022-11-01T09:59:02.381Z,15.5
2022-11-01T10:00:02.425Z,15.5
2022-11-01T10:01:09.292Z,15.6
2022-11-01T10:02:09.682Z,15.7
2022-11-01T10:03:01.400Z,15.8
2022-11-01T10:04:01.202Z,15.8
2022-11-01T10:05:01.162Z,15.8
2022-11-01T10:06:10.866Z,15.9
2022-11-01T10:07:04.039Z,16
2022-11-01T10:08:01.968Z,16
2022-11-01T10:09:01.054Z,16.1
2022-11-01T10:10:01.243Z,16.1
2022-11-01T10:11:14.935Z,16.1
2022-11-01T10:12:01.824Z,16.1
2022-11-01T10:13:01.150Z,16.1
2022-11-01T10:14:00.985Z,16.1
2022-11-01T10:15:01.104Z,16.1
2022-11-01T10:16:16.745Z,16.1
2022-11-01T10:17:03.863Z,16.1
2022-11-01T10:18:01.141Z,16.1
2022-11-01T10:19:01.078Z,16.1
2022-11-01T10:20:01.187Z,16
2022-11-01T10:21:01.058Z,16
2022-11-01T10:22:01.120Z,16
2022-11-01T10:23:01.506Z,16
2022-11-01T10:24:01.376Z,16
2022-11-01T10:25:01.864Z,16
2022-11-01T10:26:01.147Z,16
2022-11-01T10:27:01.098Z,16
2022-11-01T10:28:01.114Z,15.9
2022-11-01T10:29:01.065Z,15.9
2022-11-01T10:30:01.172Z,15.9
2022-11-01T10:31:01.117Z,15.9
2022-11-01T10:32:01.521Z,15.9
2022-11-01T10:33:01.706Z,15.8
2022-11-01T10:34:00.944Z,15.8
2022-11-01T10:35:01.139Z,15.8
2022-11-01T10:36:01.145Z,15.8
2022-11-01T10:37:01.469Z,15.8
2022-11-01T10:38:22.834Z,15.9
2022-11-01T10:40:06.226Z,15.9
2022-11-01T10:41:01.215Z,15.9
2022-11-01T10:42:01.083Z,15.9
2022-11-01T10:43:01.102Z,15.9
2022-11-01T10:44:01.335Z,15.9
2022-11-01T10:45:01.119Z,16
2022-11-01T10:46:01.192Z,16
2022-11-01T10:47:01.154Z,16
2022-11-01T10:48:01.530Z,16
2022-11-01T10:49:01.483Z,16
2022-11-01T10:50:06.485Z,16
2022-11-01T10:51:02.142Z,16
2022-11-01T10:52:02.260Z,16
2022-11-01T10:53:01.159Z,16.1
2022-11-01T10:54:00.640Z,16.1
2022-11-01T10:55:00.341Z,16.1
2022-11-01T10:56:00.028Z,16.1
2022-11-01T10:57:00.400Z,16.1
2022-11-01T10:58:00.414Z,16.2
2022-11-01T10:59:00.285Z,16.2
2022-11-01T10:59:59.845Z,16.3
2022-11-01T11:01:02.363Z,16.3
2022-11-01T11:02:01.217Z,16.3
2022-11-01T11:03:01.083Z,16.4
2022-11-01T11:04:01.125Z,16.5
2022-11-01T11:05:01.459Z,16.5
2022-11-01T11:06:02.571Z,16.5
2022-11-01T11:07:00.732Z,16.5
2022-11-01T11:08:01.096Z,16.5
2022-11-01T11:09:02.191Z,16.5
2022-11-01T11:11:04.342Z,16.5
2022-11-01T11:12:01.886Z,16.5
2022-11-01T11:13:02.475Z,16.5
2022-11-01T11:14:01.346Z,16.5
2022-11-01T11:15:02.024Z,16.5
2022-11-01T11:16:01.406Z,16.5
2022-11-01T11:17:01.599Z,16.5
2022-11-01T11:18:01.239Z,16.5
2022-11-01T11:19:01.121Z,16.5
2022-11-01T11:20:01.142Z,16.5
2022-11-01T11:21:01.131Z,16.5
2022-11-01T11:22:00.803Z,16.5
2022-11-01T11:23:00.891Z,16.5
2022-11-01T11:24:01.164Z,16.5
2022-11-01T11:25:01.359Z,16.5
2022-11-01T11:26:02.109Z,16.5
2022-11-01T11:27:00.794Z,16.5
2022-11-01T11:28:01.013Z,16.5
2022-11-01T11:29:01.997Z,16.5
2022-11-01T11:30:01.053Z,16.5
2022-11-01T11:31:01.048Z,16.5
2022-11-01T11:32:01.120Z,16.5
2022-11-01T11:33:01.123Z,16.5
2022-11-01T11:34:00.834Z,16.5
2022-11-01T11:35:00.382Z,16.5
2022-11-01T11:36:00.057Z,16.5
2022-11-01T11:37:03.294Z,16.5
2022-11-01T11:38:01.797Z,16.6
2022-11-01T11:39:01.262Z,16.6
2022-11-01T11:40:01.050Z,16.6
2022-11-01T11:41:01.386Z,16.6
2022-11-01T11:42:06.666Z,16.6
2022-11-01T11:43:01.149Z,16.6
2022-11-01T11:44:01.067Z,16.6
2022-11-01T11:45:01.078Z,16.6
2022-11-01T11:46:01.750Z,16.6
2022-11-01T11:47:09.085Z,16.6
2022-11-01T11:48:01.766Z,16.6
2022-11-01T11:49:00.855Z,16.6
2022-11-01T11:50:01.182Z,16.6
2022-11-01T11:51:01.368Z,16.6
2022-11-01T11:52:12.416Z,16.7
2022-11-01T11:53:02.158Z,16.7
2022-11-01T11:54:02.116Z,16.7
2022-11-01T11:55:01.145Z,16.7
2022-11-01T11:56:01.236Z,16.8
2022-11-01T11:57:14.430Z,16.8
2022-11-01T11:58:01.499Z,16.8
2022-11-01T11:59:04.712Z,16.9
2022-11-01T12:00:01.829Z,16.9
2022-11-01T12:01:01.768Z,16.9
2022-11-01T12:02:17.243Z,16.9
2022-11-01T12:03:01.689Z,16.9
2022-11-01T12:04:01.991Z,16.9
2022-11-01T12:05:01.267Z,16.9
2022-11-01T12:06:01.100Z,16.9
2022-11-01T12:07:01.111Z,16.9
2022-11-01T12:08:01.168Z,17
2022-11-01T12:09:01.267Z,17
2022-11-01T12:10:01.262Z,17
2022-11-01T12:11:01.240Z,17
2022-11-01T12:12:01.217Z,17
2022-11-01T12:13:02.484Z,17
2022-11-01T12:14:01.367Z,17.1
2022-11-01T12:15:03.184Z,17.1
2022-11-01T12:16:01.369Z,17.1
2022-11-01T12:17:01.081Z,17.2
2022-11-01T12:18:01.479Z,17.2
2022-11-01T12:19:01.113Z,17.2
2022-11-01T12:20:01.547Z,17.3
2022-11-01T12:21:01.111Z,17.3
2022-11-01T12:22:00.794Z,17.3
2022-11-01T12:23:00.421Z,17.3
2022-11-01T12:24:00.153Z,17.3
2022-11-01T12:24:59.897Z,17.3
2022-11-01T12:25:59.592Z,17.3
2022-11-01T12:27:01.365Z,17.3
2022-11-01T12:28:02.563Z,17.3
2022-11-01T12:29:01.064Z,17.3
2022-11-01T12:30:00.794Z,17.3
2022-11-01T12:31:01.452Z,17.3
2022-11-01T12:32:01.172Z,17.4
2022-11-01T12:33:01.165Z,17.4
2022-11-01T12:34:01.106Z,17.5
2022-11-01T12:35:01.116Z,17.5
2022-11-01T12:36:01.785Z,17.5
2022-11-01T12:37:01.105Z,17.5
2022-11-01T12:38:01.371Z,17.5
2022-11-01T12:39:01.694Z,17.6
2022-11-01T12:40:01.255Z,17.6
2022-11-01T12:41:01.302Z,17.6
2022-11-01T12:42:01.302Z,17.6
2022-11-01T12:43:02.068Z,17.6
2022-11-01T12:44:02.052Z,17.6
2022-11-01T12:45:01.346Z,17.7
2022-11-01T12:46:01.960Z,17.7
2022-11-01T12:47:01.219Z,17.7
2022-11-01T12:48:01.381Z,17.7
2022-11-01T12:49:02.461Z,17.7
2022-11-01T12:50:01.072Z,17.7
2022-11-01T12:51:01.824Z,17.7
2022-11-01T12:52:01.585Z,17.8
2022-11-01T12:53:01.757Z,17.8
2022-11-01T12:54:01.889Z,17.8
2022-11-01T12:55:01.118Z,17.8
2022-11-01T12:56:01.186Z,17.8
2022-11-01T12:57:01.511Z,17.8
2022-11-01T12:58:00.980Z,17.8
2022-11-01T12:59:01.572Z,17.8
2022-11-01T13:00:01.148Z,17.8
2022-11-01T13:01:02.408Z,17.8
2022-11-01T13:02:01.021Z,17.8
2022-11-01T13:03:00.831Z,17.8
2022-11-01T13:04:01.070Z,17.8
2022-11-01T13:05:01.082Z,17.8
2022-11-01T13:06:01.094Z,17.8
2022-11-01T13:07:01.150Z,17.8
2022-11-01T13:08:01.165Z,17.8
2022-11-01T13:09:01.488Z,17.8
2022-11-01T13:10:01.106Z,17.8
2022-11-01T13:11:01.116Z,17.8
2022-11-01T13:12:01.141Z,17.8
2022-11-01T13:13:01.060Z,17.8
2022-11-01T13:14:01.065Z,17.8
2022-11-01T13:15:01.110Z,17.8
2022-11-01T13:16:01.159Z,17.8
2022-11-01T13:17:01.177Z,17.8
2022-11-01T13:18:01.442Z,17.8
2022-11-01T13:19:01.059Z,17.8
2022-11-01T13:20:01.069Z,17.8
2022-11-01T13:21:01.380Z,17.8
2022-11-01T13:22:01.111Z,17.7
2022-11-01T13:23:01.521Z,17.7
2022-11-01T13:24:01.094Z,17.7
2022-11-01T13:25:01.197Z,17.7
2022-11-01T13:26:01.107Z,17.6
2022-11-01T13:27:01.188Z,17.6